< < Back
Terminal Aerodrome Forecast


Current Version              Previous Versions:   1  2  3  4  5  6  7  8  9  

Terminal Aerodrome Forecast

196
FTUS42 KCHS 290100 AAA
TAFSAV
TAF AMD
KSAV 290156Z 2902/2924 VRB04KT P6SM SKC
     FM292000 13011KT P6SM SCT060=

Latest METAR

313
SAUS80 KWBC 290800
MTRSAV
METAR KSAV 290753Z AUTO 34003KT 10SM FEW024 22/20 A3002 RMK AO2 SLP166
T02170200 TSNO


USA.gov is the U.S. government's official web portal to all federal, state and local government web resources and services.